Time;durP1;ratioP1;P1;durP2;ratioP2;P2;SDS_P1;SDS_P2;PMS_P1;PMS_P2;Temp;Humidity;BMP_temperature;BMP_pressure;BME280_temperature;BME280_humidity;BME280_pressure;Samples;Min_cycle;Max_cycle;Signal;HPM_P1;HPM_P2
2022/07/19 00:02:12;;;;;;;;;;;19.50;99.90;;;;;;5155751;27;19927;-69
2022/07/19 00:04:38;;;;;;;;;;;19.40;99.90;;;;;;5153854;27;19967;-69
2022/07/19 00:07:06;;;;;;;;;;;19.40;99.90;;;;;;5158649;27;19927;-70
2022/07/19 00:09:32;;;;;;;;;;;19.40;99.90;;;;;;5145808;27;19929;-69
2022/07/19 00:11:57;;;;;;;;;;;19.40;99.90;;;;;;5147349;27;19919;-69
2022/07/19 00:14:23;;;;;;;;;;;19.30;99.90;;;;;;5164652;27;19927;-70
2022/07/19 00:16:49;;;;;;;;;;;19.30;99.90;;;;;;5146560;27;20490;-69
2022/07/19 00:19:14;;;;;;;;;;;19.40;99.90;;;;;;5165925;27;19962;-69
2022/07/19 00:21:40;;;;;;;;;;;19.40;99.90;;;;;;5137610;27;19923;-69
2022/07/19 00:24:05;;;;;;;;;;;19.30;99.90;;;;;;5144405;27;19923;-69
2022/07/19 00:26:31;;;;;;;;;;;19.30;99.90;;;;;;5148563;27;19923;-69
2022/07/19 00:28:57;;;;;;;;;;;19.20;99.90;;;;;;5146003;27;21283;-69
2022/07/19 00:31:22;;;;;;;;;;;19.20;99.90;;;;;;5146616;27;20393;-70
2022/07/19 00:33:48;;;;;;;;;;;19.20;99.90;;;;;;5165417;27;20389;-69
2022/07/19 00:36:14;;;;;;;;;;;19.20;99.90;;;;;;5164344;27;19927;-68
2022/07/19 00:38:39;;;;;;;;;;;19.20;99.90;;;;;;5164164;27;19929;-69
2022/07/19 00:41:05;;;;;;;;;;;19.20;99.90;;;;;;5147708;27;19923;-68
2022/07/19 00:43:31;;;;;;;;;;;19.10;99.90;;;;;;5158502;27;19927;-70
2022/07/19 00:45:56;;;;;;;;;;;19.10;99.90;;;;;;5147559;27;19975;-68
2022/07/19 00:48:22;;;;;;;;;;;19.10;99.90;;;;;;5164439;27;19926;-69
2022/07/19 00:50:48;;;;;;;;;;;19.10;99.90;;;;;;5164154;27;19923;-69
2022/07/19 00:53:14;;;;;;;;;;;19.10;99.90;;;;;;5164493;27;20254;-69
2022/07/19 00:55:40;;;;;;;;;;;19.00;99.90;;;;;;5163939;27;19975;-70
2022/07/19 00:58:06;;;;;;;;;;;19.00;99.90;;;;;;5146864;27;19930;-69
2022/07/19 01:00:32;;;;;;;;;;;19.00;99.90;;;;;;5163181;27;19923;-69
2022/07/19 01:02:58;;;;;;;;;;;19.00;99.90;;;;;;5157670;27;19922;-69
2022/07/19 01:05:24;;;;;;;;;;;19.00;99.90;;;;;;5147727;27;20279;-69
2022/07/19 01:07:49;;;;;;;;;;;19.00;99.90;;;;;;5163825;27;20376;-69
2022/07/19 01:10:15;;;;;;;;;;;19.00;99.90;;;;;;5145941;27;20093;-69
2022/07/19 01:12:41;;;;;;;;;;;18.90;99.90;;;;;;5164965;27;19923;-69
2022/07/19 01:15:13;;;;;;;;;;;18.90;99.90;;;;;;5163541;27;19927;-69
2022/07/19 01:17:39;;;;;;;;;;;18.90;99.90;;;;;;5145355;27;20374;-69
2022/07/19 01:20:05;;;;;;;;;;;18.90;99.90;;;;;;5144380;27;19930;-69
2022/07/19 01:22:30;;;;;;;;;;;18.80;99.90;;;;;;5165956;27;20380;-69
2022/07/19 01:24:56;;;;;;;;;;;18.80;99.90;;;;;;5143040;27;19966;-70
2022/07/19 01:27:21;;;;;;;;;;;18.90;99.90;;;;;;5147468;27;19922;-69
2022/07/19 01:29:47;;;;;;;;;;;18.70;99.90;;;;;;5144773;27;20333;-70
2022/07/19 01:32:12;;;;;;;;;;;18.70;99.90;;;;;;5144951;27;19923;-68
2022/07/19 01:34:38;;;;;;;;;;;18.70;99.90;;;;;;5164826;27;19923;-68
2022/07/19 01:37:03;;;;;;;;;;;18.60;99.90;;;;;;5162936;27;19924;-70
2022/07/19 01:39:29;;;;;;;;;;;18.60;99.90;;;;;;5165202;27;19922;-69
2022/07/19 01:41:54;;;;;;;;;;;18.60;99.90;;;;;;5143323;27;19927;-69
2022/07/19 01:44:20;;;;;;;;;;;18.50;99.90;;;;;;5166278;27;20335;-69
2022/07/19 01:46:45;;;;;;;;;;;18.50;99.90;;;;;;5162063;27;20374;-69
2022/07/19 01:49:11;;;;;;;;;;;18.50;99.90;;;;;;5145533;27;19927;-69
2022/07/19 01:51:36;;;;;;;;;;;18.50;99.90;;;;;;5145948;27;20025;-69
2022/07/19 01:54:02;;;;;;;;;;;18.50;99.90;;;;;;5143679;27;20367;-69
2022/07/19 01:56:27;;;;;;;;;;;18.50;99.90;;;;;;5165503;27;19922;-69
2022/07/19 01:58:53;;;;;;;;;;;18.60;99.90;;;;;;5143476;27;19933;-69
2022/07/19 02:01:18;;;;;;;;;;;18.40;99.90;;;;;;5164965;27;19922;-69
2022/07/19 02:03:44;;;;;;;;;;;18.40;99.90;;;;;;5143856;27;19976;-69
2022/07/19 02:06:12;;;;;;;;;;;18.40;99.90;;;;;;5166986;27;19927;-70
2022/07/19 02:08:38;;;;;;;;;;;18.40;99.90;;;;;;5167455;27;19927;-69
2022/07/19 02:11:34;;;;;;;;;;;18.30;99.90;;;;;;5167962;27;19923;-69
2022/07/19 02:13:49;;;;;;;;;;;18.30;99.90;;;;;;5142622;27;19923;-69
2022/07/19 02:16:15;;;;;;;;;;;18.20;99.90;;;;;;5169856;27;19929;-69
2022/07/19 02:18:40;;;;;;;;;;;18.20;99.90;;;;;;5147987;27;19923;-70
2022/07/19 02:21:06;;;;;;;;;;;18.30;99.90;;;;;;5167707;27;20393;-70
2022/07/19 02:23:31;;;;;;;;;;;18.20;99.90;;;;;;5167834;27;19930;-70
2022/07/19 02:25:57;;;;;;;;;;;18.10;99.90;;;;;;5148354;27;20010;-68
2022/07/19 02:28:22;;;;;;;;;;;18.10;99.90;;;;;;5149365;27;19929;-70
2022/07/19 02:30:48;;;;;;;;;;;18.10;99.90;;;;;;5165710;27;20282;-70
2022/07/19 02:33:13;;;;;;;;;;;18.10;99.90;;;;;;5169440;27;19923;-69
2022/07/19 02:35:39;;;;;;;;;;;18.10;99.90;;;;;;5165471;27;20002;-69
2022/07/19 02:38:04;;;;;;;;;;;18.20;99.90;;;;;;5168307;27;20298;-69
2022/07/19 02:40:30;;;;;;;;;;;18.20;99.90;;;;;;5167413;27;19923;-69
2022/07/19 02:42:55;;;;;;;;;;;18.20;99.90;;;;;;5166175;27;20377;-69
2022/07/19 02:45:21;;;;;;;;;;;18.30;99.90;;;;;;5168120;27;19925;-68
2022/07/19 02:47:47;;;;;;;;;;;18.50;99.90;;;;;;5147243;27;19979;-68
2022/07/19 02:50:12;;;;;;;;;;;18.50;99.90;;;;;;5168029;27;19962;-68
2022/07/19 02:52:38;;;;;;;;;;;18.50;99.90;;;;;;5146841;27;19931;-69
2022/07/19 02:55:04;;;;;;;;;;;18.50;99.90;;;;;;5168140;27;19930;-68
2022/07/19 02:57:29;;;;;;;;;;;18.50;99.90;;;;;;5147411;27;19930;-69
2022/07/19 02:59:55;;;;;;;;;;;18.40;99.90;;;;;;5166275;27;19923;-69
2022/07/19 03:02:20;;;;;;;;;;;18.40;99.90;;;;;;5167182;27;19923;-69
2022/07/19 03:04:46;;;;;;;;;;;18.30;99.90;;;;;;5147150;27;20021;-69
2022/07/19 03:07:11;;;;;;;;;;;18.30;99.90;;;;;;5168598;27;19923;-69
2022/07/19 03:09:37;;;;;;;;;;;18.30;99.90;;;;;;5145627;27;20418;-69
2022/07/19 03:12:02;;;;;;;;;;;18.30;99.90;;;;;;5168260;27;19923;-69
2022/07/19 03:14:28;;;;;;;;;;;18.30;99.90;;;;;;5166119;27;20327;-68
2022/07/19 03:16:53;;;;;;;;;;;18.40;99.90;;;;;;5147216;27;20369;-69
2022/07/19 03:19:19;;;;;;;;;;;18.40;99.90;;;;;;5167076;27;19923;-69
2022/07/19 03:21:44;;;;;;;;;;;18.30;99.90;;;;;;5165538;27;19945;-68
2022/07/19 03:24:10;;;;;;;;;;;18.70;99.90;;;;;;5167056;27;19923;-69
2022/07/19 03:26:35;;;;;;;;;;;18.20;99.90;;;;;;5164634;27;19927;-68
2022/07/19 03:29:01;;;;;;;;;;;18.20;99.90;;;;;;5167468;27;19923;-69
2022/07/19 03:31:26;;;;;;;;;;;18.10;99.90;;;;;;5141326;27;19991;-69
2022/07/19 03:33:52;;;;;;;;;;;18.10;99.90;;;;;;5141701;27;19927;-70
2022/07/19 03:36:17;;;;;;;;;;;18.00;99.90;;;;;;5140591;27;20271;-69
2022/07/19 03:38:43;;;;;;;;;;;18.00;99.90;;;;;;5142379;27;19933;-69
2022/07/19 03:41:08;;;;;;;;;;;17.90;99.90;;;;;;5164255;27;19923;-69
2022/07/19 03:43:36;;;;;;;;;;;17.90;99.90;;;;;;5146138;27;20421;-69
2022/07/19 03:46:02;;;;;;;;;;;17.80;99.90;;;;;;5144609;27;20404;-69
2022/07/19 03:48:27;;;;;;;;;;;17.80;99.90;;;;;;5144429;27;19994;-69
2022/07/19 03:50:53;;;;;;;;;;;17.90;99.90;;;;;;5164327;27;19936;-69
2022/07/19 03:53:18;;;;;;;;;;;17.80;99.90;;;;;;5145884;27;20439;-69
2022/07/19 03:55:44;;;;;;;;;;;17.80;99.90;;;;;;5145371;27;20040;-69
2022/07/19 03:58:09;;;;;;;;;;;17.80;99.90;;;;;;5145440;27;19927;-70
2022/07/19 04:00:35;;;;;;;;;;;17.80;99.90;;;;;;5166015;27;19923;-70
2022/07/19 04:03:00;;;;;;;;;;;17.80;99.90;;;;;;5145378;27;19933;-69
2022/07/19 04:05:26;;;;;;;;;;;17.90;99.90;;;;;;5167541;27;20301;-70
2022/07/19 04:07:51;;;;;;;;;;;17.80;99.90;;;;;;5163631;27;20370;-69
2022/07/19 04:10:17;;;;;;;;;;;17.90;99.90;;;;;;5166154;27;19927;-70
2022/07/19 04:12:42;;;;;;;;;;;17.90;99.90;;;;;;5164910;27;19967;-70
2022/07/19 04:15:08;;;;;;;;;;;18.00;99.90;;;;;;5164701;27;20018;-69
2022/07/19 04:17:33;;;;;;;;;;;18.00;99.90;;;;;;5166769;27;19984;-69
2022/07/19 04:19:59;;;;;;;;;;;18.10;99.90;;;;;;5162610;27;19973;-70
2022/07/19 04:22:25;;;;;;;;;;;18.10;99.90;;;;;;5167099;27;19966;-69
2022/07/19 04:24:51;;;;;;;;;;;18.20;99.90;;;;;;5144953;27;19972;-70
2022/07/19 04:27:16;;;;;;;;;;;18.30;99.90;;;;;;5146213;27;19923;-69
2022/07/19 04:29:42;;;;;;;;;;;18.50;99.90;;;;;;5164732;27;19933;-70
2022/07/19 04:32:07;;;;;;;;;;;18.60;99.90;;;;;;5146195;27;19971;-71
2022/07/19 04:34:33;;;;;;;;;;;18.60;99.90;;;;;;5165031;27;19922;-71
2022/07/19 04:36:58;;;;;;;;;;;18.70;99.90;;;;;;5163360;27;19923;-68
2022/07/19 04:39:24;;;;;;;;;;;18.80;99.90;;;;;;5148163;27;19923;-68
2022/07/19 04:41:49;;;;;;;;;;;18.80;99.90;;;;;;5143654;27;19923;-68
2022/07/19 04:44:15;;;;;;;;;;;19.00;99.90;;;;;;5166143;27;19931;-68
2022/07/19 04:46:40;;;;;;;;;;;19.00;99.90;;;;;;5146217;27;19930;-68
2022/07/19 04:49:06;;;;;;;;;;;19.10;99.90;;;;;;5163581;27;19923;-70
2022/07/19 04:51:31;;;;;;;;;;;19.10;99.90;;;;;;5165310;27;20357;-69
2022/07/19 04:53:57;;;;;;;;;;;19.10;99.90;;;;;;5145033;27;19927;-69
2022/07/19 04:56:22;;;;;;;;;;;19.20;99.90;;;;;;5165843;27;19923;-68
2022/07/19 04:58:48;;;;;;;;;;;19.20;99.90;;;;;;5140459;27;19963;-69
2022/07/19 05:01:13;;;;;;;;;;;19.20;99.90;;;;;;5145592;27;20339;-69
2022/07/19 05:03:39;;;;;;;;;;;19.20;99.90;;;;;;5142854;27;19922;-70
2022/07/19 05:06:05;;;;;;;;;;;19.30;99.90;;;;;;5145648;27;20327;-71
2022/07/19 05:08:30;;;;;;;;;;;19.30;99.90;;;;;;5164260;27;19977;-69
2022/07/19 05:10:56;;;;;;;;;;;19.40;99.90;;;;;;5164424;27;19923;-71
2022/07/19 05:13:21;;;;;;;;;;;19.40;99.90;;;;;;5162823;27;19923;-70
2022/07/19 05:15:47;;;;;;;;;;;19.50;99.90;;;;;;5147786;27;20027;-71
2022/07/19 05:18:12;;;;;;;;;;;19.50;99.90;;;;;;5143042;27;19923;-68
2022/07/19 05:20:38;;;;;;;;;;;19.50;99.90;;;;;;5146558;27;19948;-70
2022/07/19 05:23:03;;;;;;;;;;;19.50;99.90;;;;;;5163213;27;20275;-71
2022/07/19 05:25:29;;;;;;;;;;;19.60;99.90;;;;;;5163609;27;20487;-72
2022/07/19 05:27:56;;;;;;;;;;;19.60;99.90;;;;;;5162669;27;19923;-72
2022/07/19 05:30:22;;;;;;;;;;;19.70;99.90;;;;;;5162232;27;19923;-72
2022/07/19 05:32:47;;;;;;;;;;;19.80;99.90;;;;;;5147474;27;19934;-72
2022/07/19 05:35:13;;;;;;;;;;;19.90;99.90;;;;;;5143250;27;20389;-72
2022/07/19 05:37:38;;;;;;;;;;;19.90;99.90;;;;;;5165061;27;19930;-72
2022/07/19 05:40:04;;;;;;;;;;;20.00;99.90;;;;;;5142768;27;20365;-73
2022/07/19 05:42:30;;;;;;;;;;;20.00;99.90;;;;;;5161656;27;19931;-72
2022/07/19 05:44:58;;;;;;;;;;;20.10;99.90;;;;;;5141492;27;20301;-72
2022/07/19 05:47:24;;;;;;;;;;;20.20;99.90;;;;;;5161308;27;19934;-72
2022/07/19 05:49:49;;;;;;;;;;;20.20;99.90;;;;;;5162924;27;19923;-72
2022/07/19 05:52:15;;;;;;;;;;;20.40;99.90;;;;;;5141884;27;19930;-73
2022/07/19 05:54:40;;;;;;;;;;;20.40;99.90;;;;;;5146277;27;19964;-72
2022/07/19 05:57:06;;;;;;;;;;;20.50;99.90;;;;;;5161383;27;19931;-72
2022/07/19 05:59:35;;;;;;;;;;;20.50;99.90;;;;;;5164475;27;19919;-72
2022/07/19 06:02:01;;;;;;;;;;;20.60;99.90;;;;;;5144171;27;19922;-73
2022/07/19 06:04:26;;;;;;;;;;;20.70;99.90;;;;;;5145895;27;19945;-72
2022/07/19 06:06:52;;;;;;;;;;;20.70;99.90;;;;;;5138833;27;20394;-72
2022/07/19 06:09:17;;;;;;;;;;;20.80;99.90;;;;;;5158431;27;19927;-72
2022/07/19 06:11:43;;;;;;;;;;;20.90;99.90;;;;;;5165257;27;19923;-73
2022/07/19 06:14:12;;;;;;;;;;;21.00;99.90;;;;;;5161170;27;19962;-72
2022/07/19 06:16:38;;;;;;;;;;;20.90;99.90;;;;;;5158147;27;20449;-73
2022/07/19 06:19:05;;;;;;;;;;;21.10;99.90;;;;;;5164987;27;19923;-75
2022/07/19 06:21:30;;;;;;;;;;;21.20;99.90;;;;;;5142969;27;19930;-73
2022/07/19 06:23:56;;;;;;;;;;;21.30;99.90;;;;;;5145739;27;19923;-72
2022/07/19 06:26:21;;;;;;;;;;;21.40;99.60;;;;;;5144413;27;19954;-72
2022/07/19 06:28:47;;;;;;;;;;;21.60;99.70;;;;;;5145005;27;19927;-72
2022/07/19 06:31:13;;;;;;;;;;;21.70;99.80;;;;;;5145699;27;19952;-73
2022/07/19 06:33:39;;;;;;;;;;;21.80;99.20;;;;;;5161458;27;19931;-72
2022/07/19 06:36:05;;;;;;;;;;;21.90;98.80;;;;;;5165145;27;20301;-72
2022/07/19 06:38:31;;;;;;;;;;;22.00;98.90;;;;;;5143215;27;20362;-72
2022/07/19 06:40:56;;;;;;;;;;;22.00;98.80;;;;;;5163572;27;19923;-72
2022/07/19 06:43:22;;;;;;;;;;;22.20;98.60;;;;;;5163372;27;19967;-72
2022/07/19 06:45:47;;;;;;;;;;;22.20;98.60;;;;;;5145405;27;20362;-72
2022/07/19 06:48:13;;;;;;;;;;;22.30;98.90;;;;;;5163146;27;19971;-72
2022/07/19 06:50:38;;;;;;;;;;;22.40;98.20;;;;;;5143840;27;19983;-73
2022/07/19 06:53:04;;;;;;;;;;;22.60;98.20;;;;;;5168313;27;19923;-71
2022/07/19 06:55:29;;;;;;;;;;;22.60;98.30;;;;;;5164819;27;19923;-65
2022/07/19 06:57:55;;;;;;;;;;;22.70;98.10;;;;;;5168198;27;20312;-65
2022/07/19 07:00:21;;;;;;;;;;;22.80;98.00;;;;;;5166299;27;19977;-65
2022/07/19 07:02:46;;;;;;;;;;;22.90;98.10;;;;;;5166584;27;20279;-65
2022/07/19 07:05:12;;;;;;;;;;;23.00;98.10;;;;;;5167130;27;19923;-65
2022/07/19 07:07:38;;;;;;;;;;;23.30;97.50;;;;;;5165929;27;20390;-64
2022/07/19 07:10:06;;;;;;;;;;;23.30;97.60;;;;;;5148570;27;20354;-63
2022/07/19 07:12:31;;;;;;;;;;;23.30;97.60;;;;;;5146665;27;20374;-63
2022/07/19 07:14:57;;;;;;;;;;;23.50;97.70;;;;;;5168360;27;19930;-63
2022/07/19 07:17:22;;;;;;;;;;;23.60;97.20;;;;;;5143891;27;20396;-65
2022/07/19 07:19:48;;;;;;;;;;;23.70;97.00;;;;;;5147659;27;19983;-66
2022/07/19 07:22:14;;;;;;;;;;;23.80;97.10;;;;;;5145910;27;19930;-65
2022/07/19 07:24:39;;;;;;;;;;;24.00;96.90;;;;;;5144215;27;19953;-67
2022/07/19 07:27:05;;;;;;;;;;;24.10;97.00;;;;;;5148209;27;19948;-67
2022/07/19 07:29:30;;;;;;;;;;;24.40;96.60;;;;;;5164174;27;19976;-67
2022/07/19 07:31:56;;;;;;;;;;;24.80;96.60;;;;;;5148256;27;20088;-67
2022/07/19 07:34:21;;;;;;;;;;;25.60;95.90;;;;;;5164503;27;19924;-67
2022/07/19 07:36:47;;;;;;;;;;;26.60;96.10;;;;;;5164768;27;19927;-66
2022/07/19 07:39:13;;;;;;;;;;;27.40;95.50;;;;;;5166547;27;19923;-66
2022/07/19 07:41:39;;;;;;;;;;;28.20;94.40;;;;;;5166230;27;19923;-66
2022/07/19 07:44:04;;;;;;;;;;;28.70;92.70;;;;;;5164326;27;19933;-65
2022/07/19 07:46:30;;;;;;;;;;;29.10;92.40;;;;;;5167295;27;20366;-66
2022/07/19 07:48:56;;;;;;;;;;;29.40;91.70;;;;;;5145269;27;19987;-66
2022/07/19 07:51:21;;;;;;;;;;;29.60;91.90;;;;;;5167020;27;19923;-66
2022/07/19 07:53:47;;;;;;;;;;;30.00;92.00;;;;;;5164238;27;20043;-67
2022/07/19 07:56:12;;;;;;;;;;;30.40;91.50;;;;;;5147821;27;19973;-67
2022/07/19 07:58:38;;;;;;;;;;;30.70;90.40;;;;;;5164500;27;20394;-68
2022/07/19 08:01:03;;;;;;;;;;;30.90;90.80;;;;;;5146354;27;20393;-68
2022/07/19 08:03:29;;;;;;;;;;;31.20;90.40;;;;;;5165061;27;20025;-67
2022/07/19 08:05:57;;;;;;;;;;;31.40;87.50;;;;;;5162906;27;20007;-68
2022/07/19 08:08:26;;;;;;;;;;;31.50;88.60;;;;;;5167337;27;19930;-66
2022/07/19 08:10:55;;;;;;;;;;;31.50;86.80;;;;;;5163403;27;19923;-67
2022/07/19 08:13:21;;;;;;;;;;;31.60;86.50;;;;;;5146432;27;20059;-68
2022/07/19 08:15:46;;;;;;;;;;;31.70;88.10;;;;;;5166948;27;19974;-70
2022/07/19 08:18:12;;;;;;;;;;;31.80;85.90;;;;;;5144601;27;19926;-70
2022/07/19 08:20:37;;;;;;;;;;;31.90;87.60;;;;;;5165384;27;19927;-70
2022/07/19 08:23:03;;;;;;;;;;;32.20;87.20;;;;;;5164724;27;19927;-70
2022/07/19 08:25:29;;;;;;;;;;;32.20;86.00;;;;;;5165356;27;19923;-70
2022/07/19 08:27:54;;;;;;;;;;;32.40;86.70;;;;;;5164637;27;19994;-70
2022/07/19 08:30:20;;;;;;;;;;;32.70;85.60;;;;;;5144969;27;20381;-70
2022/07/19 08:32:45;;;;;;;;;;;32.80;86.60;;;;;;5165829;27;19923;-70
2022/07/19 08:35:11;;;;;;;;;;;33.00;85.40;;;;;;5143364;27;19924;-70
2022/07/19 08:37:36;;;;;;;;;;;33.30;84.10;;;;;;5165764;27;19931;-68
2022/07/19 08:40:04;;;;;;;;;;;33.30;84.60;;;;;;5163470;27;19930;-70
2022/07/19 08:42:30;;;;;;;;;;;33.60;84.90;;;;;;5165063;27;19931;-70
2022/07/19 08:44:56;;;;;;;;;;;34.00;84.20;;;;;;5146287;27;19945;-71
2022/07/19 08:47:21;;;;;;;;;;;34.20;82.70;;;;;;5144601;27;19978;-71
2022/07/19 08:49:47;;;;;;;;;;;34.40;83.80;;;;;;5165647;27;19929;-72
2022/07/19 08:52:13;;;;;;;;;;;34.60;84.40;;;;;;5162688;27;20023;-72
2022/07/19 08:54:39;;;;;;;;;;;34.90;81.50;;;;;;5139425;27;19976;-71
2022/07/19 08:59:49;;;;;;;;;;;35.00;82.20;;;;;;5161110;27;20293;-73
2022/07/19 09:02:15;;;;;;;;;;;35.20;82.20;;;;;;5146097;27;20389;-75
2022/07/19 09:04:40;;;;;;;;;;;35.40;81.50;;;;;;5162628;27;19927;-73
2022/07/19 09:07:06;;;;;;;;;;;35.50;78.90;;;;;;5145481;27;19923;-73
2022/07/19 09:09:34;;;;;;;;;;;35.50;78.60;;;;;;5164524;27;19930;-70
2022/07/19 09:12:00;;;;;;;;;;;35.60;78.80;;;;;;5144249;27;19972;-70
2022/07/19 09:14:26;;;;;;;;;;;35.60;78.90;;;;;;5144387;27;19967;-70
2022/07/19 09:17:02;;;;;;;;;;;35.70;79.20;;;;;;5143776;27;19922;-70
2022/07/19 09:19:30;;;;;;;;;;;35.80;78.30;;;;;;5147635;27;19934;-70
2022/07/19 09:22:02;;;;;;;;;;;35.90;77.70;;;;;;5144892;27;20017;-69
2022/07/19 09:24:29;;;;;;;;;;;36.00;76.00;;;;;;5164768;27;19933;-71
2022/07/19 09:26:59;;;;;;;;;;;35.90;75.50;;;;;;5145117;27;19933;-71
2022/07/19 09:29:25;;;;;;;;;;;35.90;75.60;;;;;;5145450;27;20720;-70
2022/07/19 09:32:05;;;;;;;;;;;35.80;76.50;;;;;;5163493;27;19923;-71
2022/07/19 09:34:31;;;;;;;;;;;36.00;75.70;;;;;;5146883;27;19923;-71
2022/07/19 09:37:11;;;;;;;;;;;36.00;75.20;;;;;;5161497;27;19933;-71
2022/07/19 09:39:41;;;;;;;;;;;36.00;75.40;;;;;;5158451;27;20302;-75
2022/07/19 09:42:09;;;;;;;;;;;36.10;77.40;;;;;;5165003;27;19970;-71
2022/07/19 09:44:35;;;;;;;;;;;36.40;75.30;;;;;;5161077;27;20360;-73
2022/07/19 09:47:01;;;;;;;;;;;36.30;74.60;;;;;;5146584;27;20010;-72
2022/07/19 09:49:26;;;;;;;;;;;36.20;74.50;;;;;;5143204;27;19927;-70
2022/07/19 09:51:53;;;;;;;;;;;36.20;75.40;;;;;;5145047;27;19930;-70
2022/07/19 09:54:19;;;;;;;;;;;36.40;75.60;;;;;;5145289;27;19926;-69
2022/07/19 09:56:45;;;;;;;;;;;36.40;74.50;;;;;;5163569;27;20405;-70
2022/07/19 09:59:12;;;;;;;;;;;36.50;76.10;;;;;;5144757;27;20397;-71
2022/07/19 10:01:38;;;;;;;;;;;36.50;73.10;;;;;;5162381;27;19927;-71
2022/07/19 10:04:13;;;;;;;;;;;36.50;74.60;;;;;;5146505;27;19930;-79
2022/07/19 10:06:40;;;;;;;;;;;36.70;74.00;;;;;;5143689;27;19922;-74
2022/07/19 10:09:06;;;;;;;;;;;36.70;73.80;;;;;;5164313;27;20060;-71
2022/07/19 10:11:33;;;;;;;;;;;36.80;73.80;;;;;;5161564;27;19946;-80
2022/07/19 10:13:58;;;;;;;;;;;36.80;73.20;;;;;;5164136;27;19927;-73
2022/07/19 10:16:27;;;;;;;;;;;37.00;73.80;;;;;;5142224;27;19945;-73
2022/07/19 10:19:02;;;;;;;;;;;37.20;73.60;;;;;;5140598;27;19953;-74
2022/07/19 10:21:28;;;;;;;;;;;37.10;72.60;;;;;;5138271;27;19927;-73
2022/07/19 10:23:53;;;;;;;;;;;37.00;70.60;;;;;;5145821;27;19927;-78
2022/07/19 10:26:42;;;;;;;;;;;37.00;71.60;;;;;;5162695;27;19923;-77
2022/07/19 10:29:08;;;;;;;;;;;36.90;70.90;;;;;;5164313;27;20279;-76
2022/07/19 10:31:35;;;;;;;;;;;36.90;71.80;;;;;;5168540;27;19923;-76
2022/07/19 10:34:02;;;;;;;;;;;36.90;71.60;;;;;;5165240;27;19923;-76
2022/07/19 10:36:30;;;;;;;;;;;36.90;72.90;;;;;;5150630;27;19954;-74
2022/07/19 10:39:16;;;;;;;;;;;37.10;72.90;;;;;;5146710;27;19930;-74
2022/07/19 10:42:01;;;;;;;;;;;37.10;70.90;;;;;;5146855;27;20037;-75
2022/07/19 10:44:27;;;;;;;;;;;37.10;71.70;;;;;;5143098;27;19923;-76
2022/07/19 10:46:52;;;;;;;;;;;37.00;70.80;;;;;;5168310;27;19930;-74
2022/07/19 10:49:50;;;;;;;;;;;37.00;70.80;;;;;;5143150;27;19927;-71
2022/07/19 10:52:28;;;;;;;;;;;37.10;70.90;;;;;;5105518;27;20349;-72
2022/07/19 10:55:14;;;;;;;;;;;37.30;69.80;;;;;;5132384;27;20188;-75
2022/07/19 10:57:39;;;;;;;;;;;37.20;71.00;;;;;;5146773;27;19970;-73
2022/07/19 11:00:15;;;;;;;;;;;37.40;69.80;;;;;;5144074;27;20003;-72
2022/07/19 11:02:41;;;;;;;;;;;37.40;70.10;;;;;;5142020;27;19923;-74
2022/07/19 11:05:07;;;;;;;;;;;37.40;68.90;;;;;;5144887;27;20341;-72
2022/07/19 11:07:32;;;;;;;;;;;37.20;70.10;;;;;;5144749;27;19962;-71
2022/07/19 11:09:58;;;;;;;;;;;37.40;68.70;;;;;;5143050;27;19932;-73
2022/07/19 11:12:32;;;;;;;;;;;37.30;69.70;;;;;;5143304;27;19923;-71
2022/07/19 11:14:58;;;;;;;;;;;37.40;68.60;;;;;;5145663;27;19925;-72
2022/07/19 11:17:24;;;;;;;;;;;37.60;69.80;;;;;;5143383;27;19927;-71
2022/07/19 11:19:57;;;;;;;;;;;37.60;70.30;;;;;;5145606;27;19926;-71
2022/07/19 11:22:22;;;;;;;;;;;37.80;68.70;;;;;;5142102;27;19968;-71
2022/07/19 11:24:48;;;;;;;;;;;37.70;67.70;;;;;;5148016;27;19927;-71
2022/07/19 11:27:13;;;;;;;;;;;37.80;67.00;;;;;;5139279;27;19923;-71
2022/07/19 11:29:55;;;;;;;;;;;37.70;66.50;;;;;;5145201;27;19994;-71
2022/07/19 11:32:21;;;;;;;;;;;37.60;68.00;;;;;;5141370;27;19923;-72
2022/07/19 11:34:53;;;;;;;;;;;37.70;66.90;;;;;;5147493;27;19930;-72
2022/07/19 11:37:29;;;;;;;;;;;37.70;68.60;;;;;;5139669;27;19961;-75
2022/07/19 11:39:57;;;;;;;;;;;37.50;69.40;;;;;;5144638;27;19974;-76
2022/07/19 11:42:33;;;;;;;;;;;37.30;66.90;;;;;;5144370;27;19976;-76
2022/07/19 11:44:59;;;;;;;;;;;37.40;68.60;;;;;;5142717;27;19927;-75
2022/07/19 11:47:24;;;;;;;;;;;37.70;69.30;;;;;;5143377;27;19974;-76
2022/07/19 11:49:50;;;;;;;;;;;37.90;66.20;;;;;;5143695;27;19927;-76
2022/07/19 11:52:16;;;;;;;;;;;37.70;68.40;;;;;;5142480;27;20401;-76
2022/07/19 11:54:41;;;;;;;;;;;37.70;67.40;;;;;;5147196;27;19923;-76
2022/07/19 11:57:25;;;;;;;;;;;37.60;65.90;;;;;;5142201;27;20728;-76
2022/07/19 11:59:51;;;;;;;;;;;37.40;67.70;;;;;;5140321;27;20394;-76
2022/07/19 12:02:16;;;;;;;;;;;37.40;69.30;;;;;;5146375;27;19923;-76
2022/07/19 12:04:42;;;;;;;;;;;37.60;66.50;;;;;;5141278;27;19928;-76
2022/07/19 12:07:07;;;;;;;;;;;37.40;66.50;;;;;;5146475;27;19947;-76
2022/07/19 12:09:34;;;;;;;;;;;37.50;66.10;;;;;;5142146;27;19958;-75
2022/07/19 12:11:59;;;;;;;;;;;37.40;67.80;;;;;;5143327;27;20366;-76
2022/07/19 12:14:26;;;;;;;;;;;37.60;68.00;;;;;;5143381;27;19930;-77
2022/07/19 12:17:09;;;;;;;;;;;37.50;65.40;;;;;;5144271;27;19975;-76
2022/07/19 12:19:35;;;;;;;;;;;37.50;67.00;;;;;;5138167;27;19929;-76
2022/07/19 12:22:00;;;;;;;;;;;37.40;66.00;;;;;;5144125;27;19923;-76
2022/07/19 12:24:28;;;;;;;;;;;37.30;66.20;;;;;;5144102;27;19967;-76
2022/07/19 12:26:54;;;;;;;;;;;37.50;66.10;;;;;;5142971;27;19950;-76
2022/07/19 12:29:27;;;;;;;;;;;37.40;66.60;;;;;;5143452;27;20358;-76
2022/07/19 12:31:56;;;;;;;;;;;37.40;68.80;;;;;;5143179;27;19923;-75
2022/07/19 12:34:22;;;;;;;;;;;37.40;67.20;;;;;;5142679;27;19944;-75
2022/07/19 12:36:47;;;;;;;;;;;37.40;68.40;;;;;;5144364;27;20010;-76
2022/07/19 12:39:24;;;;;;;;;;;37.40;66.00;;;;;;5142285;27;19927;-79
2022/07/19 12:41:53;;;;;;;;;;;37.40;66.20;;;;;;5143131;27;19923;-78
2022/07/19 12:44:19;;;;;;;;;;;37.40;66.30;;;;;;5142701;27;19923;-77
2022/07/19 12:46:44;;;;;;;;;;;37.40;66.90;;;;;;5142118;27;20064;-78
2022/07/19 12:49:10;;;;;;;;;;;37.60;67.80;;;;;;5149774;27;19923;-77
2022/07/19 12:51:35;;;;;;;;;;;37.60;67.00;;;;;;5144665;27;20366;-76
2022/07/19 12:54:01;;;;;;;;;;;37.50;65.50;;;;;;5165514;27;19923;-76
2022/07/19 12:56:27;;;;;;;;;;;37.50;66.20;;;;;;5144554;27;19938;-76
2022/07/19 13:01:36;;;;;;;;;;;37.60;65.80;;;;;;5159663;27;19923;-74
2022/07/19 13:04:01;;;;;;;;;;;37.50;65.10;;;;;;5165991;27;20022;-76
2022/07/19 13:06:27;;;;;;;;;;;37.60;65.60;;;;;;5140197;27;19967;-78
2022/07/19 13:08:52;;;;;;;;;;;37.60;64.00;;;;;;5164800;27;19930;-78
2022/07/19 13:11:18;;;;;;;;;;;37.60;63.70;;;;;;5163620;27;20362;-78
2022/07/19 13:13:44;;;;;;;;;;;37.60;64.10;;;;;;5164885;27;19952;-79
2022/07/19 13:16:10;;;;;;;;;;;37.40;63.90;;;;;;5163544;27;20234;-74
2022/07/19 13:18:35;;;;;;;;;;;37.40;62.80;;;;;;5163424;27;20017;-78
2022/07/19 13:21:01;;;;;;;;;;;37.40;64.20;;;;;;5165416;27;19978;-78
2022/07/19 13:23:26;;;;;;;;;;;37.30;63.70;;;;;;5161708;27;20378;-79
2022/07/19 13:25:52;;;;;;;;;;;37.40;64.50;;;;;;5165620;27;19923;-73
2022/07/19 13:28:17;;;;;;;;;;;37.40;64.00;;;;;;5144437;27;19938;-78
2022/07/19 13:30:43;;;;;;;;;;;37.40;64.90;;;;;;5164839;27;19938;-79
2022/07/19 13:33:09;;;;;;;;;;;37.40;66.10;;;;;;5163841;27;19927;-79
2022/07/19 13:35:35;;;;;;;;;;;37.60;64.80;;;;;;5163205;27;19923;-78
2022/07/19 13:38:00;;;;;;;;;;;37.60;66.20;;;;;;5146545;27;20305;-78
2022/07/19 13:40:26;;;;;;;;;;;37.70;65.80;;;;;;5143879;27;19923;-78
2022/07/19 13:42:52;;;;;;;;;;;37.70;64.40;;;;;;5164615;27;20342;-78
2022/07/19 13:45:18;;;;;;;;;;;37.60;64.60;;;;;;5162881;27;19946;-79
2022/07/19 13:47:43;;;;;;;;;;;37.70;64.50;;;;;;5146286;27;20310;-76
2022/07/19 13:50:09;;;;;;;;;;;37.70;65.10;;;;;;5162351;27;20287;-78
2022/07/19 13:52:34;;;;;;;;;;;37.70;63.60;;;;;;5145222;27;19923;-79
2022/07/19 13:55:00;;;;;;;;;;;37.80;64.60;;;;;;5163838;27;20366;-79
2022/07/19 13:57:26;;;;;;;;;;;37.80;64.30;;;;;;5161140;27;19982;-79
2022/07/19 13:59:51;;;;;;;;;;;37.80;63.90;;;;;;5164100;27;19929;-79
2022/07/19 14:02:17;;;;;;;;;;;37.80;63.50;;;;;;5166188;27;19927;-79
2022/07/19 14:04:42;;;;;;;;;;;37.70;63.10;;;;;;5150069;27;20327;-79
2022/07/19 14:07:08;;;;;;;;;;;37.60;63.20;;;;;;5167172;27;20013;-79
2022/07/19 14:09:36;;;;;;;;;;;37.60;63.50;;;;;;5149699;27;19923;-79
2022/07/19 14:12:01;;;;;;;;;;;37.50;63.90;;;;;;5167060;27;19930;-78
2022/07/19 14:14:27;;;;;;;;;;;37.60;64.10;;;;;;5148406;27;19919;-78
2022/07/19 14:16:52;;;;;;;;;;;37.70;63.90;;;;;;5150166;27;20334;-78
2022/07/19 14:19:18;;;;;;;;;;;37.70;66.10;;;;;;5146682;27;19927;-78